Astoria, OR (97103)

11:46 AM PDT on July 03, 2015 (GMT -0700)
The Slope of South | | Change Station
CLOSE
Current Station
Personal Weather Station
Location: Astoria, OR
Elevation: 213 ft
Nearby Weather Stations

Elev 213 ft 46.18 °N, 123.84 °W | Updated 12 minutes ago

Overcast
Overcast
66.4 °F
Feels Like 66.4 °F
N
5.8
Wind Variable Wind from WSW

Today
High -- | Low -- °F
--% Chance of Precip.
Yesterday
High -- | Low -- °F
Precip. -- in
5:28 AM 9:09 PM
Waning Gibbous, 96% visible
Pressure 30.01 in
Visibility 8.0 miles
Clouds Overcast 1200 ft
Dew Point 58 °F
Humidity 75%
Rainfall 0.00 in
Snow Depth Not available.
UV 2 out of 12
Pollen 6.40 out of 12
Air Quality Not available.
Flu Activity Not available.
METAR KAST 031755Z AUTO 23004KT 8SM OVC012 18/14 A3001 RMK AO2 SLP162 T01780144 10183 20156 50001

More Conditions Fewer Conditions

Pressure 30.01 in
Visibility 8.0 miles
Clouds Overcast 1200 ft
Dew Point 58 °F
Humidity 75%
Rainfall 0.00 in
Snow Depth Not available.
UV 2 out of 12
Pollen 6.40 out of 12
Air Quality Not available.
Flu Activity Not available.
METAR KAST 031755Z AUTO 23004KT 8SM OVC012 18/14 A3001 RMK AO2 SLP162 T01780144 10183 20156 50001

More Conditions Fewer Conditions

10-Day Weather Forecast

×

Almanac

Astronomy

Jul. 03, 2015 Rise Set
Actual Time
Civil Twilight
Nautical Twilight
Astronomical Twilight
Moon
Length of Visible Light
Length of Day
Tomorrow will be .
, % of the Moon is Illuminated

Today's Extremes

State Highs State Lows

Community

WunderPhotos

Upload Photos

1,834,737 photos uploaded!

WunderBlogs® & News

Nearby

Air Quality

  Air Quality AQ Index Pollutant
Not available.

Snow Depth

Station Depth Elevation

Earthquake Activity

City Distance Mag. Time & Date
Minimum magnitude displayed is 2.5.

Coastal Water Temperatures

Place Temperature

Stations

Nearby Weather Stations

Station Location Temp. Windchill Dew Point Humidity Wind Precip. Elev Updated Type